Time;durP1;ratioP1;P1;durP2;ratioP2;P2;SDS_P1;SDS_P2;PMS_P1;PMS_P2;Temp;Humidity;BMP_temperature;BMP_pressure;BME280_temperature;BME280_humidity;BME280_pressure;Samples;Min_cycle;Max_cycle;Signal;HPM_P1;HPM_P2
2021/07/18 00:02:00;;;;;;;10.43;2.25;;;19.60;99.90;;;;;;5031551;28;20417;-69
2021/07/18 00:04:30;;;;;;;8.18;2.15;;;19.60;99.90;;;;;;5033898;28;20106;-71
2021/07/18 00:06:59;;;;;;;9.35;2.67;;;19.50;99.90;;;;;;5025888;28;20059;-72
2021/07/18 00:09:28;;;;;;;9.23;2.50;;;19.50;99.90;;;;;;5019897;28;20163;-71
2021/07/18 00:11:55;;;;;;;7.78;2.40;;;19.40;99.90;;;;;;5028312;28;20048;-68
2021/07/18 00:14:22;;;;;;;6.18;2.25;;;19.40;99.90;;;;;;5027547;28;20091;-67
2021/07/18 00:16:49;;;;;;;7.28;2.30;;;19.40;99.90;;;;;;5029324;28;20482;-72
2021/07/18 00:19:16;;;;;;;6.30;2.28;;;19.50;99.90;;;;;;5027542;28;20056;-70
2021/07/18 00:21:43;;;;;;;5.13;2.30;;;19.40;99.90;;;;;;5029046;28;20063;-72
2021/07/18 00:24:11;;;;;;;6.32;2.60;;;19.40;99.90;;;;;;5035222;28;20134;-68
2021/07/18 00:26:38;;;;;;;8.40;2.20;;;19.40;99.90;;;;;;5037960;28;20390;-67
2021/07/18 00:29:05;;;;;;;5.55;2.08;;;19.30;99.90;;;;;;5036062;28;20231;-67
2021/07/18 00:31:32;;;;;;;5.82;2.10;;;19.30;99.90;;;;;;5038173;28;20553;-67
2021/07/18 00:33:59;;;;;;;8.75;1.90;;;19.30;99.90;;;;;;5035683;28;21209;-68
2021/07/18 00:36:26;;;;;;;9.13;2.10;;;19.20;99.90;;;;;;5035767;28;20439;-69
2021/07/18 00:38:53;;;;;;;6.55;2.40;;;19.10;99.90;;;;;;5035953;28;20116;-67
2021/07/18 00:41:22;;;;;;;11.00;2.00;;;19.10;99.90;;;;;;5036381;28;20084;-72
2021/07/18 00:43:49;;;;;;;8.98;2.83;;;19.30;99.90;;;;;;5038299;28;20513;-68
2021/07/18 00:46:16;;;;;;;8.30;2.33;;;19.00;99.90;;;;;;5035776;28;20122;-73
2021/07/18 00:48:44;;;;;;;11.10;2.25;;;19.00;99.90;;;;;;5037046;28;20078;-68
2021/07/18 00:51:11;;;;;;;6.97;2.05;;;19.00;99.90;;;;;;5036364;28;20076;-70
2021/07/18 00:53:38;;;;;;;11.90;2.03;;;18.90;99.90;;;;;;5035075;28;20084;-68
2021/07/18 00:56:05;;;;;;;5.47;1.52;;;19.00;99.90;;;;;;5035111;28;20247;-71
2021/07/18 00:58:34;;;;;;;8.32;1.80;;;19.00;99.90;;;;;;5036046;28;20127;-68
2021/07/18 01:01:01;;;;;;;7.97;2.10;;;19.00;99.90;;;;;;5036571;28;20750;-68
2021/07/18 01:03:28;;;;;;;9.48;2.22;;;18.90;99.90;;;;;;5036718;28;20505;-74
2021/07/18 01:05:56;;;;;;;8.68;1.70;;;18.90;99.90;;;;;;5036182;28;20469;-68
2021/07/18 01:08:25;;;;;;;6.53;2.53;;;18.90;99.90;;;;;;5034989;28;20785;-68
2021/07/18 01:10:52;;;;;;;9.05;2.30;;;18.90;99.90;;;;;;5036968;28;20056;-67
2021/07/18 01:13:19;;;;;;;6.10;1.95;;;18.80;99.90;;;;;;5038800;28;20110;-68
2021/07/18 01:15:48;;;;;;;6.15;2.15;;;18.70;99.90;;;;;;5041498;28;20072;-74
2021/07/18 01:18:15;;;;;;;7.75;1.90;;;18.80;99.90;;;;;;5040275;28;20110;-70
2021/07/18 01:20:43;;;;;;;6.18;1.92;;;18.70;99.90;;;;;;5042743;28;21033;-72
2021/07/18 01:23:11;;;;;;;7.43;1.83;;;18.60;99.90;;;;;;5042004;28;20137;-68
2021/07/18 01:25:40;;;;;;;7.57;2.30;;;18.60;99.90;;;;;;5043166;28;20052;-67
2021/07/18 01:28:09;;;;;;;6.72;1.92;;;18.60;99.90;;;;;;5042488;28;20052;-68
2021/07/18 01:30:36;;;;;;;11.32;1.92;;;18.60;99.90;;;;;;5041053;28;20048;-69
2021/07/18 01:33:04;;;;;;;6.65;2.10;;;18.50;99.90;;;;;;5039359;28;20141;-67
2021/07/18 01:35:31;;;;;;;9.80;2.40;;;18.60;99.90;;;;;;5043042;28;20133;-68
2021/07/18 01:38:01;;;;;;;5.03;2.35;;;18.40;99.90;;;;;;5042364;28;20123;-68
2021/07/18 01:40:29;;;;;;;5.55;2.25;;;18.40;99.90;;;;;;5042996;28;20048;-68
2021/07/18 01:42:56;;;;;;;11.30;3.00;;;18.30;99.90;;;;;;5044959;28;20060;-74
2021/07/18 01:45:23;;;;;;;6.38;1.95;;;18.20;99.90;;;;;;5043198;28;20049;-68
2021/07/18 01:47:50;;;;;;;6.85;1.83;;;18.20;99.90;;;;;;5042612;28;20044;-71
2021/07/18 01:50:18;;;;;;;5.95;1.80;;;18.20;99.90;;;;;;5044076;28;20481;-67
2021/07/18 01:52:45;;;;;;;8.77;2.15;;;18.20;99.90;;;;;;5044549;28;20074;-68
2021/07/18 01:55:14;;;;;;;9.25;1.80;;;18.30;99.90;;;;;;5047954;28;20131;-68
2021/07/18 01:57:44;;;;;;;6.60;2.53;;;18.20;99.90;;;;;;5044480;28;20067;-73
2021/07/18 02:00:14;;;;;;;4.90;1.90;;;18.30;99.90;;;;;;5045582;28;20149;-68
2021/07/18 02:02:42;;;;;;;5.93;2.08;;;18.10;99.90;;;;;;5048043;28;20076;-68
2021/07/18 02:05:11;;;;;;;8.73;2.33;;;18.00;99.90;;;;;;5046718;28;20167;-70
2021/07/18 02:07:38;;;;;;;8.05;2.05;;;18.00;99.90;;;;;;5046111;28;20172;-73
2021/07/18 02:10:06;;;;;;;6.93;2.25;;;17.90;99.90;;;;;;5042804;28;20049;-68
2021/07/18 02:12:34;;;;;;;7.55;1.83;;;17.90;99.90;;;;;;5042322;28;21066;-68
2021/07/18 02:15:03;;;;;;;10.25;2.58;;;17.80;99.90;;;;;;5044174;28;20409;-71
2021/07/18 02:17:30;;;;;;;5.82;2.50;;;17.70;99.90;;;;;;5043042;28;20056;-73
2021/07/18 02:19:57;;;;;;;8.93;2.65;;;17.70;99.90;;;;;;5042560;28;20103;-68
2021/07/18 02:22:30;;;;;;;8.68;2.40;;;17.90;99.90;;;;;;5043201;28;20125;-70
2021/07/18 02:24:57;;;;;;;7.10;1.98;;;17.90;99.90;;;;;;5043278;28;20075;-68
2021/07/18 02:27:24;;;;;;;10.13;2.55;;;17.80;99.90;;;;;;5040514;28;20052;-72
2021/07/18 02:29:51;;;;;;;8.10;2.35;;;17.70;99.90;;;;;;5039883;28;20110;-70
2021/07/18 02:32:20;;;;;;;13.30;2.78;;;17.70;99.90;;;;;;5039584;28;20080;-71
2021/07/18 02:34:47;;;;;;;4.95;2.22;;;17.60;99.90;;;;;;5040082;28;20084;-67
2021/07/18 02:37:14;;;;;;;9.05;2.80;;;17.60;99.90;;;;;;5039502;28;20048;-74
2021/07/18 02:39:41;;;;;;;4.28;2.00;;;17.70;99.90;;;;;;5039481;28;20060;-68
2021/07/18 02:42:08;;;;;;;6.38;2.00;;;17.60;99.90;;;;;;5038847;28;20082;-73
2021/07/18 02:44:35;;;;;;;5.40;2.20;;;17.60;99.90;;;;;;5039600;28;20641;-67
2021/07/18 02:47:02;;;;;;;7.25;2.58;;;17.50;99.90;;;;;;5039456;28;20051;-74
2021/07/18 02:49:31;;;;;;;16.55;2.72;;;17.40;99.90;;;;;;5038072;28;20153;-68
2021/07/18 02:51:58;;;;;;;5.53;2.75;;;17.60;99.90;;;;;;5038625;28;20110;-70
2021/07/18 02:54:25;;;;;;;13.90;2.28;;;17.50;99.90;;;;;;5035224;28;20063;-74
2021/07/18 02:56:52;;;;;;;6.28;2.40;;;17.50;99.90;;;;;;5038707;28;20059;-72
2021/07/18 02:59:18;;;;;;;13.90;3.45;;;17.40;99.90;;;;;;5036626;28;20049;-72
2021/07/18 03:01:45;;;;;;;6.57;2.30;;;17.40;99.90;;;;;;5039090;28;20174;-70
2021/07/18 03:04:12;;;;;;;7.47;2.50;;;17.20;99.90;;;;;;5038586;28;20561;-69
2021/07/18 03:06:41;;;;;;;7.22;2.28;;;17.20;99.90;;;;;;5038968;28;20232;-71
2021/07/18 03:09:08;;;;;;;7.80;2.13;;;17.10;99.90;;;;;;5036994;28;20122;-71
2021/07/18 03:11:35;;;;;;;6.60;2.40;;;17.00;99.90;;;;;;5039073;28;20098;-73
2021/07/18 03:14:02;;;;;;;7.45;2.30;;;16.90;99.90;;;;;;5038328;28;20104;-68
2021/07/18 03:16:29;;;;;;;6.40;2.47;;;17.00;99.90;;;;;;5037534;28;20134;-72
2021/07/18 03:18:56;;;;;;;6.80;2.40;;;16.90;99.90;;;;;;5037415;28;20056;-69
2021/07/18 03:21:23;;;;;;;5.93;2.60;;;16.80;99.90;;;;;;5037477;28;20509;-72
2021/07/18 03:23:51;;;;;;;8.10;2.63;;;16.80;99.90;;;;;;5036963;28;20417;-69
2021/07/18 03:26:18;;;;;;;7.43;2.95;;;16.90;99.90;;;;;;5037292;28;20060;-70
2021/07/18 03:28:45;;;;;;;8.23;2.38;;;16.80;99.90;;;;;;5036887;28;20064;-73
2021/07/18 03:31:13;;;;;;;8.68;2.83;;;16.70;99.90;;;;;;5037194;28;20496;-68
2021/07/18 03:33:40;;;;;;;9.23;3.03;;;16.70;99.90;;;;;;5037422;28;20087;-69
2021/07/18 03:36:07;;;;;;;11.45;3.25;;;16.70;99.90;;;;;;5036441;28;20044;-69
2021/07/18 03:38:34;;;;;;;6.43;2.30;;;16.70;99.90;;;;;;5036515;28;20302;-68
2021/07/18 03:41:03;;;;;;;8.63;2.70;;;16.60;99.90;;;;;;5037151;28;20525;-68
2021/07/18 03:43:30;;;;;;;8.23;2.20;;;16.60;99.90;;;;;;5035151;28;20841;-69
2021/07/18 03:45:57;;;;;;;9.35;2.42;;;16.60;99.90;;;;;;5035610;28;20052;-70
2021/07/18 03:48:24;;;;;;;12.00;3.03;;;16.50;99.90;;;;;;5033013;28;20143;-68
2021/07/18 03:50:51;;;;;;;13.32;2.72;;;16.50;99.90;;;;;;5035469;28;20190;-70
2021/07/18 03:53:18;;;;;;;9.07;2.40;;;16.50;99.90;;;;;;5034745;28;20068;-71
2021/07/18 03:55:45;;;;;;;7.57;2.47;;;16.60;99.90;;;;;;5034837;28;20048;-73
2021/07/18 03:58:13;;;;;;;6.00;2.25;;;16.50;99.90;;;;;;5033891;28;20126;-72
2021/07/18 04:00:40;;;;;;;8.07;2.58;;;16.40;99.90;;;;;;5035461;28;20080;-72
2021/07/18 04:03:07;;;;;;;7.32;2.33;;;16.50;99.90;;;;;;5036510;28;20084;-69
2021/07/18 04:05:34;;;;;;;9.20;2.30;;;16.60;99.90;;;;;;5037109;28;20076;-69
2021/07/18 04:08:01;;;;;;;6.50;2.40;;;16.50;99.90;;;;;;5036007;28;20049;-72
2021/07/18 04:10:28;;;;;;;7.18;2.50;;;16.50;99.90;;;;;;5036716;28;20071;-72
2021/07/18 04:12:56;;;;;;;6.25;2.83;;;16.50;99.90;;;;;;5035666;28;20061;-72
2021/07/18 04:15:25;;;;;;;6.28;2.55;;;16.60;99.90;;;;;;5035778;28;20094;-68
2021/07/18 04:17:52;;;;;;;7.28;2.67;;;16.60;99.90;;;;;;5035801;28;20067;-71
2021/07/18 04:20:19;;;;;;;7.18;2.47;;;16.60;99.90;;;;;;5036067;28;20041;-69
2021/07/18 04:22:46;;;;;;;6.57;2.38;;;16.60;99.90;;;;;;5036626;28;20158;-67
2021/07/18 04:25:13;;;;;;;7.22;2.38;;;16.70;99.90;;;;;;5035848;28;20084;-70
2021/07/18 04:27:40;;;;;;;6.68;2.53;;;16.70;99.90;;;;;;5035807;28;20060;-67
2021/07/18 04:30:08;;;;;;;9.63;3.00;;;16.80;99.90;;;;;;5036984;28;20048;-72
2021/07/18 04:32:37;;;;;;;13.27;3.80;;;16.90;99.90;;;;;;5036126;28;20076;-72
2021/07/18 04:35:05;;;;;;;8.25;2.58;;;16.80;99.90;;;;;;5035148;28;20109;-67
2021/07/18 04:37:32;;;;;;;8.75;2.67;;;16.80;99.90;;;;;;5035324;28;20060;-68
2021/07/18 04:39:59;;;;;;;12.68;2.92;;;16.90;99.90;;;;;;5035726;28;20468;-67
2021/07/18 04:42:26;;;;;;;7.97;2.55;;;16.90;99.90;;;;;;5036120;28;20087;-73
2021/07/18 04:44:53;;;;;;;7.68;2.70;;;16.80;99.90;;;;;;5036161;28;20052;-71
2021/07/18 04:47:20;;;;;;;12.25;2.70;;;16.90;99.90;;;;;;5035843;28;20080;-67
2021/07/18 04:49:48;;;;;;;9.05;2.47;;;16.90;99.90;;;;;;5035862;28;20049;-71
2021/07/18 04:52:15;;;;;;;9.05;2.30;;;16.90;99.90;;;;;;5036629;28;20066;-68
2021/07/18 04:54:42;;;;;;;9.77;3.00;;;17.00;99.90;;;;;;5036330;28;20114;-69
2021/07/18 04:57:10;;;;;;;6.70;2.65;;;17.00;99.90;;;;;;5036505;28;20114;-70
2021/07/18 04:59:37;;;;;;;7.50;2.30;;;17.00;99.90;;;;;;5034717;28;20056;-68
2021/07/18 05:02:04;;;;;;;8.20;2.33;;;16.90;99.90;;;;;;5036106;28;20084;-70
2021/07/18 05:04:31;;;;;;;8.00;2.35;;;17.00;99.90;;;;;;5034924;28;20127;-73
2021/07/18 05:06:59;;;;;;;12.45;2.30;;;16.90;99.90;;;;;;5037108;28;20133;-72
2021/07/18 05:09:27;;;;;;;6.72;2.80;;;17.00;99.90;;;;;;5033964;28;20118;-69
2021/07/18 05:11:54;;;;;;;10.30;2.60;;;17.00;99.90;;;;;;5035767;28;20049;-73
2021/07/18 05:14:21;;;;;;;5.75;2.53;;;17.00;99.90;;;;;;5035686;28;20135;-68
2021/07/18 05:16:48;;;;;;;7.43;2.67;;;17.10;99.90;;;;;;5035471;28;20102;-69
2021/07/18 05:19:15;;;;;;;5.60;2.30;;;17.10;99.90;;;;;;5034781;28;20048;-68
2021/07/18 05:21:42;;;;;;;8.95;2.50;;;17.30;99.90;;;;;;5035542;28;20076;-67
2021/07/18 05:24:10;;;;;;;10.40;2.72;;;17.30;99.90;;;;;;5035675;28;20060;-72
2021/07/18 05:26:37;;;;;;;8.05;2.60;;;17.40;99.90;;;;;;5036261;28;20037;-70
2021/07/18 05:29:04;;;;;;;6.05;2.35;;;17.40;99.90;;;;;;5035633;28;20106;-68
2021/07/18 05:31:32;;;;;;;9.20;2.50;;;17.50;99.90;;;;;;5035574;28;20072;-68
2021/07/18 05:33:59;;;;;;;8.40;2.88;;;17.50;99.90;;;;;;5035084;28;20059;-71
2021/07/18 05:36:26;;;;;;;7.93;2.50;;;17.50;99.90;;;;;;5034518;28;20156;-74
2021/07/18 05:38:53;;;;;;;8.52;2.58;;;17.60;99.90;;;;;;5035679;28;21095;-72
2021/07/18 05:41:21;;;;;;;5.35;2.88;;;17.70;99.90;;;;;;5035003;28;20500;-68
2021/07/18 05:43:48;;;;;;;7.28;2.83;;;17.70;99.90;;;;;;5036438;28;20087;-69
2021/07/18 05:46:15;;;;;;;8.38;2.90;;;17.70;99.90;;;;;;5035189;28;20048;-73
2021/07/18 05:48:42;;;;;;;7.60;2.70;;;17.80;99.90;;;;;;5034620;28;20087;-74
2021/07/18 05:51:09;;;;;;;6.22;2.65;;;17.80;99.90;;;;;;5035938;28;20130;-74
2021/07/18 05:53:36;;;;;;;8.93;2.75;;;17.80;99.90;;;;;;5034559;28;20121;-73
2021/07/18 05:56:03;;;;;;;7.07;2.58;;;17.90;99.90;;;;;;5035366;28;20045;-67
2021/07/18 05:58:31;;;;;;;8.13;2.95;;;17.90;99.90;;;;;;5036374;28;20044;-72
2021/07/18 06:00:58;;;;;;;7.88;3.00;;;17.90;99.90;;;;;;5040089;28;20101;-68
2021/07/18 06:03:25;;;;;;;9.00;2.83;;;17.90;99.90;;;;;;5038619;28;20053;-71
2021/07/18 06:05:52;;;;;;;6.53;2.90;;;18.00;99.90;;;;;;5037711;28;20060;-68
2021/07/18 06:08:19;;;;;;;7.40;3.00;;;18.10;99.90;;;;;;5037069;28;20068;-68
2021/07/18 06:10:48;;;;;;;11.75;2.97;;;18.10;99.90;;;;;;5037846;28;20133;-71
2021/07/18 06:13:15;;;;;;;12.23;2.88;;;18.10;99.90;;;;;;5039426;28;20060;-69
2021/07/18 06:15:43;;;;;;;9.65;3.17;;;18.30;99.90;;;;;;5039345;28;20091;-67
2021/07/18 06:18:10;;;;;;;11.63;2.40;;;18.40;99.90;;;;;;5036949;28;20150;-67
2021/07/18 06:20:38;;;;;;;9.68;3.25;;;18.50;99.90;;;;;;5038318;28;20080;-71
2021/07/18 06:23:05;;;;;;;7.05;2.83;;;18.50;99.90;;;;;;5038457;28;21139;-70
2021/07/18 06:25:32;;;;;;;9.10;3.03;;;18.60;99.90;;;;;;5037584;28;20127;-69
2021/07/18 06:27:59;;;;;;;7.95;2.80;;;18.60;99.90;;;;;;5036905;28;20053;-73
2021/07/18 06:30:26;;;;;;;11.63;2.78;;;18.60;99.90;;;;;;5039289;28;20109;-68
2021/07/18 06:32:54;;;;;;;5.75;2.70;;;18.80;99.90;;;;;;5038736;28;20163;-72
2021/07/18 06:35:22;;;;;;;9.10;2.88;;;18.90;99.90;;;;;;5036985;28;20053;-67
2021/07/18 06:37:48;;;;;;;8.60;3.05;;;18.90;99.90;;;;;;5037394;28;21441;-68
2021/07/18 06:40:15;;;;;;;7.10;3.35;;;19.00;99.90;;;;;;5039729;28;20114;-67
2021/07/18 06:42:42;;;;;;;11.27;3.10;;;19.10;99.90;;;;;;5038102;28;20477;-71
2021/07/18 06:45:11;;;;;;;9.82;3.67;;;19.20;99.90;;;;;;5038648;28;20076;-68
2021/07/18 06:47:38;;;;;;;11.15;3.30;;;19.20;99.90;;;;;;5037811;28;20445;-68
2021/07/18 06:50:07;;;;;;;8.07;3.67;;;19.30;99.90;;;;;;5039567;28;20091;-72
2021/07/18 06:52:34;;;;;;;7.50;3.13;;;19.40;99.90;;;;;;5037995;28;20493;-67
2021/07/18 06:55:01;;;;;;;8.60;3.92;;;19.40;99.90;;;;;;5037929;28;20052;-73
2021/07/18 06:57:28;;;;;;;10.82;3.83;;;19.50;99.90;;;;;;5037281;28;20087;-67
2021/07/18 06:59:55;;;;;;;7.80;3.38;;;19.60;99.90;;;;;;5037885;28;20044;-73
2021/07/18 07:02:22;;;;;;;8.07;3.00;;;19.70;99.90;;;;;;5039089;28;20076;-64
2021/07/18 07:04:49;;;;;;;7.05;3.33;;;19.80;99.90;;;;;;5038506;28;20102;-64
2021/07/18 07:07:17;;;;;;;24.45;3.63;;;19.90;99.90;;;;;;5036096;28;20041;-65
2021/07/18 07:09:44;;;;;;;7.93;3.17;;;19.90;99.90;;;;;;5034844;28;20071;-64
2021/07/18 07:12:12;;;;;;;8.45;3.65;;;20.00;99.90;;;;;;5027153;28;20076;-65
2021/07/18 07:14:38;;;;;;;10.55;3.50;;;20.00;99.90;;;;;;5034215;28;20164;-65
2021/07/18 07:17:06;;;;;;;9.10;3.38;;;20.00;99.90;;;;;;5036564;28;20493;-65
2021/07/18 07:19:36;;;;;;;9.07;3.00;;;20.10;99.90;;;;;;5034878;28;20041;-64
2021/07/18 07:22:03;;;;;;;11.05;3.30;;;20.20;99.90;;;;;;5036431;28;20075;-65
2021/07/18 07:24:31;;;;;;;10.00;3.40;;;20.20;99.90;;;;;;5036091;28;20056;-65
2021/07/18 07:26:59;;;;;;;8.38;3.38;;;20.20;99.90;;;;;;5035891;28;20088;-64
2021/07/18 07:29:26;;;;;;;8.13;3.08;;;20.30;99.90;;;;;;5034399;28;20076;-65
2021/07/18 07:31:53;;;;;;;11.40;3.63;;;20.30;99.90;;;;;;5034554;28;20468;-65
2021/07/18 07:34:20;;;;;;;8.30;3.22;;;20.40;99.90;;;;;;5034110;28;20114;-65
2021/07/18 07:36:47;;;;;;;9.85;3.50;;;20.40;99.90;;;;;;5034573;28;20570;-65
2021/07/18 07:39:14;;;;;;;9.73;3.45;;;20.50;99.90;;;;;;5034512;28;20094;-65
2021/07/18 07:41:42;;;;;;;14.70;3.45;;;20.70;99.90;;;;;;5035857;28;20091;-65
2021/07/18 07:44:09;;;;;;;10.43;3.25;;;20.80;99.90;;;;;;5034607;28;20493;-64
2021/07/18 07:46:36;;;;;;;8.95;3.58;;;21.00;99.90;;;;;;5036452;28;20927;-65
2021/07/18 07:49:04;;;;;;;13.13;3.58;;;21.10;99.90;;;;;;5035950;28;20520;-65
2021/07/18 07:51:31;;;;;;;9.05;3.55;;;21.20;99.90;;;;;;5035620;28;20053;-65
2021/07/18 07:53:58;;;;;;;9.23;3.40;;;21.30;99.90;;;;;;5035482;28;20106;-65
2021/07/18 07:56:25;;;;;;;7.35;3.50;;;21.40;99.90;;;;;;5033797;28;20049;-65
2021/07/18 07:58:56;;;;;;;8.43;3.72;;;21.50;99.90;;;;;;5035291;28;20083;-65
2021/07/18 08:01:25;;;;;;;8.07;3.13;;;21.40;99.90;;;;;;5034709;28;20060;-64
2021/07/18 08:03:52;;;;;;;9.57;3.80;;;21.50;99.90;;;;;;5035555;28;20052;-63
2021/07/18 08:06:22;;;;;;;11.00;3.63;;;21.50;99.90;;;;;;5035572;28;20123;-64
2021/07/18 08:08:49;;;;;;;9.38;4.18;;;21.60;99.90;;;;;;5034440;28;20143;-65
2021/07/18 08:11:16;;;;;;;7.88;3.42;;;21.80;99.90;;;;;;5034955;28;20101;-65
2021/07/18 08:13:44;;;;;;;10.90;3.67;;;21.80;99.90;;;;;;5034687;28;20052;-65
2021/07/18 08:16:12;;;;;;;9.00;3.42;;;22.00;99.90;;;;;;5034406;28;20045;-64
2021/07/18 08:18:40;;;;;;;8.73;3.53;;;22.10;99.90;;;;;;5032738;28;20354;-65
2021/07/18 08:21:07;;;;;;;10.18;3.95;;;22.10;99.90;;;;;;5034226;28;20063;-65
2021/07/18 08:23:34;;;;;;;10.05;3.83;;;22.20;99.90;;;;;;5035624;28;20135;-65
2021/07/18 08:26:07;;;;;;;7.45;2.90;;;22.60;99.90;;;;;;5036833;28;20049;-64
2021/07/18 08:28:38;;;;;;;8.25;3.60;;;22.70;99.90;;;;;;5036049;28;20102;-65
2021/07/18 08:31:05;;;;;;;8.95;3.70;;;22.90;99.90;;;;;;5036251;28;20059;-65
2021/07/18 08:33:33;;;;;;;7.57;3.38;;;23.10;99.90;;;;;;5036638;28;21067;-64
2021/07/18 08:36:00;;;;;;;9.50;3.72;;;23.30;99.90;;;;;;5036893;28;20511;-65
2021/07/18 08:38:27;;;;;;;8.18;3.22;;;23.30;99.90;;;;;;5035744;28;20060;-65
2021/07/18 08:40:56;;;;;;;11.98;3.72;;;23.40;99.90;;;;;;5037004;28;20084;-64
2021/07/18 08:43:24;;;;;;;7.53;3.67;;;23.60;99.90;;;;;;5037779;28;20051;-65
2021/07/18 08:45:52;;;;;;;10.07;3.17;;;23.90;99.90;;;;;;5037318;28;20075;-65
2021/07/18 08:48:19;;;;;;;8.45;3.08;;;24.40;99.90;;;;;;5036408;28;20581;-64
2021/07/18 08:50:48;;;;;;;8.57;3.75;;;24.60;99.90;;;;;;5037929;28;20056;-65
2021/07/18 08:53:15;;;;;;;8.32;3.17;;;25.00;99.90;;;;;;5041383;28;20064;-64
2021/07/18 08:55:43;;;;;;;8.73;3.40;;;25.20;99.90;;;;;;5041860;28;20076;-65
2021/07/18 08:58:11;;;;;;;9.75;3.53;;;25.70;99.90;;;;;;5036622;28;20126;-65
2021/07/18 09:00:38;;;;;;;8.60;3.03;;;26.20;99.90;;;;;;5038474;28;20818;-65
2021/07/18 09:03:05;;;;;;;8.50;3.30;;;26.80;99.90;;;;;;5036455;28;20068;-65
2021/07/18 09:05:32;;;;;;;6.68;3.00;;;27.40;99.90;;;;;;5036786;28;20045;-64
2021/07/18 09:08:00;;;;;;;7.65;3.05;;;27.60;99.90;;;;;;5036016;28;20083;-65
2021/07/18 09:10:30;;;;;;;6.82;2.97;;;28.30;99.90;;;;;;5037360;28;20044;-65
2021/07/18 09:13:05;;;;;;;8.45;3.28;;;28.70;99.90;;;;;;5036262;28;20053;-65
2021/07/18 09:15:40;;;;;;;12.93;3.73;;;29.00;99.90;;;;;;5035571;28;20052;-66
2021/07/18 09:18:19;;;;;;;7.22;2.92;;;29.40;99.90;;;;;;5033725;28;20140;-66
2021/07/18 09:20:52;;;;;;;7.63;3.47;;;29.80;99.90;;;;;;5053181;28;20063;-65
2021/07/18 09:23:24;;;;;;;8.40;3.45;;;29.70;99.90;;;;;;5041820;28;20056;-66
2021/07/18 09:25:51;;;;;;;10.07;3.40;;;30.00;99.90;;;;;;5042027;28;20078;-66
2021/07/18 09:28:20;;;;;;;9.75;3.90;;;30.50;99.90;;;;;;5035361;28;20052;-65
2021/07/18 09:30:50;;;;;;;8.30;3.05;;;31.00;99.90;;;;;;5039470;28;20088;-65
2021/07/18 09:33:26;;;;;;;7.85;3.53;;;31.30;99.90;;;;;;5044260;28;20064;-66
2021/07/18 09:35:56;;;;;;;;;;;31.80;99.90;;;;;;5048791;28;20048;-66
2021/07/18 09:38:25;;;;;;;6.80;3.03;;;32.30;99.90;;;;;;5047223;28;19921;-66
2021/07/18 09:40:58;;;;;;;9.25;3.10;;;32.50;99.90;;;;;;5047118;28;20052;-66
2021/07/18 09:43:27;;;;;;;7.13;3.25;;;32.60;99.90;;;;;;5038616;28;20139;-65
2021/07/18 09:45:59;;;;;;;7.45;2.95;;;32.80;99.90;;;;;;5047253;28;20527;-66
2021/07/18 09:48:39;;;;;;;7.97;3.20;;;33.10;99.90;;;;;;5046737;28;20056;-66
2021/07/18 09:51:11;;;;;;;7.75;3.28;;;33.20;99.90;;;;;;5049943;28;20386;-66
2021/07/18 09:53:41;;;;;;;7.63;2.97;;;33.40;99.90;;;;;;5050132;28;21482;-66
2021/07/18 09:56:10;;;;;;;8.80;2.97;;;33.50;99.90;;;;;;5048453;28;20044;-66
2021/07/18 09:58:38;;;;;;;11.10;3.03;;;33.10;99.90;;;;;;5043906;28;20048;-66
2021/07/18 10:01:07;;;;;;;7.90;3.03;;;32.90;99.90;;;;;;5048749;28;20084;-66
2021/07/18 10:03:35;;;;;;;5.68;2.72;;;33.30;99.90;;;;;;5047368;28;20084;-66
2021/07/18 10:06:09;;;;;;;8.07;3.25;;;33.80;99.90;;;;;;5046002;28;20509;-66
2021/07/18 10:08:38;;;;;;;7.10;3.33;;;33.70;99.90;;;;;;5047030;28;20064;-66
2021/07/18 10:11:08;;;;;;;6.40;3.03;;;34.40;99.90;;;;;;5046529;28;20434;-66
2021/07/18 10:13:36;;;;;;;6.88;3.35;;;34.50;99.20;;;;;;5046557;28;20110;-66
2021/07/18 10:16:03;;;;;;;7.88;3.47;;;34.80;98.90;;;;;;5044899;28;20052;-66
2021/07/18 10:18:30;;;;;;;6.10;2.95;;;34.30;98.70;;;;;;5042390;28;20500;-66
2021/07/18 10:20:59;;;;;;;7.72;3.60;;;33.90;99.30;;;;;;5047537;28;20412;-72
2021/07/18 10:23:26;;;;;;;7.82;3.13;;;34.40;99.20;;;;;;5046482;28;20501;-67
2021/07/18 10:25:54;;;;;;;6.72;3.17;;;34.70;98.30;;;;;;5046226;28;20052;-65
2021/07/18 10:28:25;;;;;;;9.23;3.78;;;34.90;97.80;;;;;;5045673;28;20083;-66
2021/07/18 10:30:55;;;;;;;6.80;3.42;;;35.10;97.20;;;;;;5043339;28;20056;-66
2021/07/18 10:33:23;;;;;;;10.90;4.35;;;35.30;96.50;;;;;;5036964;28;20421;-65
2021/07/18 10:35:53;;;;;;;10.13;3.95;;;35.20;96.10;;;;;;5046631;28;20044;-66
2021/07/18 10:38:22;;;;;;;6.38;3.50;;;35.00;96.00;;;;;;5041430;28;20157;-66
2021/07/18 10:40:51;;;;;;;8.75;3.83;;;35.50;96.30;;;;;;5040378;28;20470;-66
2021/07/18 10:43:45;;;;;;;8.25;3.53;;;35.50;95.10;;;;;;5040953;28;20044;-66
2021/07/18 10:46:13;;;;;;;6.82;3.95;;;35.40;95.20;;;;;;5040131;28;20045;-66
2021/07/18 10:48:46;;;;;;;9.88;4.28;;;35.30;94.80;;;;;;5042939;28;20056;-66
2021/07/18 10:51:14;;;;;;;8.07;3.70;;;35.00;95.70;;;;;;5043234;28;20427;-66
2021/07/18 10:53:41;;;;;;;7.28;3.53;;;35.70;94.30;;;;;;5043668;28;20367;-66
2021/07/18 10:56:08;;;;;;;8.05;3.47;;;35.20;94.20;;;;;;5046628;28;21271;-66
2021/07/18 10:58:53;;;;;;;10.13;3.35;;;35.00;95.10;;;;;;5040086;28;20497;-66
2021/07/18 11:01:48;;;;;;;7.35;3.60;;;35.20;95.10;;;;;;5038113;28;20060;-66
2021/07/18 11:04:43;;;;;;;11.00;4.20;;;35.40;94.50;;;;;;5038734;28;20084;-66
2021/07/18 11:07:36;;;;;;;8.50;4.22;;;35.60;95.10;;;;;;5024631;28;20052;-66
2021/07/18 11:10:19;;;;;;;7.18;3.28;;;35.80;93.70;;;;;;5044866;28;20523;-66
2021/07/18 11:12:48;;;;;;;10.38;4.28;;;35.90;93.20;;;;;;5043953;28;20428;-66
2021/07/18 11:15:35;;;;;;;8.55;3.88;;;36.20;93.00;;;;;;5043787;28;20473;-66
2021/07/18 11:18:06;;;;;;;6.68;3.58;;;35.40;93.60;;;;;;5038975;28;20531;-66
2021/07/18 11:20:40;;;;;;;10.48;4.25;;;35.30;93.00;;;;;;5043244;28;20087;-66
2021/07/18 11:23:08;;;;;;;9.50;4.05;;;35.70;91.60;;;;;;5046286;28;20044;-66
2021/07/18 11:25:53;;;;;;;9.20;4.10;;;34.80;91.60;;;;;;5043076;28;20144;-66
2021/07/18 11:29:01;;;;;;;8.35;4.63;;;35.10;93.10;;;;;;5043018;28;20481;-66
2021/07/18 11:31:45;;;;;;;7.43;4.13;;;35.90;91.10;;;;;;5042174;28;20057;-67
2021/07/18 11:34:18;;;;;;;13.07;4.30;;;36.10;90.50;;;;;;5042835;28;20118;-67
2021/07/18 11:37:05;;;;;;;6.75;4.18;;;36.30;91.00;;;;;;5043361;28;20106;-68
2021/07/18 11:39:35;;;;;;;8.48;4.18;;;36.00;89.20;;;;;;5041485;28;20124;-65
2021/07/18 11:42:07;;;;;;;7.85;4.00;;;36.40;89.90;;;;;;5043444;28;20059;-65
2021/07/18 11:44:34;;;;;;;7.30;3.92;;;35.80;90.60;;;;;;5042536;28;20408;-65
2021/07/18 11:47:06;;;;;;;8.70;4.63;;;35.80;89.90;;;;;;5043636;28;20051;-66
2021/07/18 11:49:36;;;;;;;7.90;4.20;;;35.80;89.40;;;;;;5041090;28;20044;-66
2021/07/18 11:52:04;;;;;;;7.22;4.32;;;35.90;87.70;;;;;;5040214;28;20060;-66
2021/07/18 11:54:32;;;;;;;8.73;4.55;;;35.90;89.50;;;;;;5036722;28;20841;-66
2021/07/18 11:56:59;;;;;;;7.80;4.20;;;36.20;90.00;;;;;;5038219;28;20134;-66
2021/07/18 11:59:28;;;;;;;9.50;4.80;;;36.40;88.00;;;;;;5034725;28;20113;-67
2021/07/18 12:01:57;;;;;;;11.18;4.35;;;36.50;87.50;;;;;;5036845;28;20497;-66
2021/07/18 12:04:27;;;;;;;9.07;6.00;;;36.40;87.60;;;;;;5035207;28;20720;-66
2021/07/18 12:06:56;;;;;;;13.25;9.80;;;36.70;87.00;;;;;;5036721;28;20103;-66
2021/07/18 12:09:25;;;;;;;9.93;4.28;;;37.10;85.70;;;;;;5035431;28;20053;-67
2021/07/18 12:11:53;;;;;;;13.88;8.15;;;37.30;84.30;;;;;;5036244;28;20501;-67
2021/07/18 12:14:21;;;;;;;12.00;6.85;;;36.90;85.60;;;;;;5041433;28;20195;-67
2021/07/18 12:16:52;;;;;;;8.38;4.15;;;36.70;84.40;;;;;;5028903;28;20048;-65
2021/07/18 12:19:19;;;;;;;9.80;4.30;;;36.20;86.70;;;;;;5033882;28;20098;-65
2021/07/18 12:21:48;;;;;;;7.80;4.10;;;37.20;83.40;;;;;;5035569;28;20063;-65
2021/07/18 12:24:21;;;;;;;14.27;9.32;;;37.20;83.10;;;;;;5034904;28;20052;-65
2021/07/18 12:27:00;;;;;;;8.52;4.45;;;37.70;81.50;;;;;;5036285;28;20131;-65
2021/07/18 12:29:29;;;;;;;8.63;4.53;;;37.70;81.30;;;;;;5033591;28;20070;-65
2021/07/18 12:31:57;;;;;;;17.20;11.02;;;37.90;80.40;;;;;;5042787;28;20048;-65
2021/07/18 12:34:28;;;;;;;6.82;4.30;;;37.70;80.30;;;;;;5043280;28;20131;-65
2021/07/18 12:36:58;;;;;;;6.97;3.83;;;37.30;80.40;;;;;;5044717;28;20048;-65
2021/07/18 12:39:27;;;;;;;7.50;4.18;;;37.00;84.10;;;;;;5043850;28;20051;-65
2021/07/18 12:41:55;;;;;;;8.43;4.50;;;37.00;81.50;;;;;;5043621;28;20064;-65
2021/07/18 12:44:23;;;;;;;6.75;4.10;;;37.70;80.00;;;;;;5043589;28;20310;-65
2021/07/18 12:47:10;;;;;;;8.25;4.22;;;37.20;82.00;;;;;;5037443;28;20119;-65
2021/07/18 12:49:37;;;;;;;10.63;3.75;;;37.60;80.40;;;;;;5041619;28;20076;-65
2021/07/18 12:52:07;;;;;;;7.82;3.95;;;37.50;81.50;;;;;;5043875;28;20084;-65
2021/07/18 12:54:34;;;;;;;7.13;3.80;;;37.90;77.70;;;;;;5043429;28;20052;-64